createdAt,value
2023-05-25T00:02:05.041Z,9.40
2023-05-25T00:04:34.676Z,9.32
2023-05-25T00:07:03.127Z,9.26
2023-05-25T00:09:31.729Z,9.22
2023-05-25T00:12:00.987Z,9.21
2023-05-25T00:14:31.322Z,9.06
2023-05-25T00:17:04.343Z,8.86
2023-05-25T00:19:34.663Z,8.83
2023-05-25T00:22:03.355Z,8.85
2023-05-25T00:24:32.615Z,8.78
2023-05-25T00:27:01.511Z,8.98
2023-05-25T00:29:29.916Z,8.78
2023-05-25T00:31:58.430Z,8.72
2023-05-25T00:34:27.750Z,8.74
2023-05-25T00:36:56.389Z,8.56
2023-05-25T00:39:25.116Z,8.48
2023-05-25T00:41:53.372Z,8.52
2023-05-25T00:44:22.474Z,8.66
2023-05-25T00:46:52.770Z,8.53
2023-05-25T00:49:23.506Z,8.44
2023-05-25T00:51:54.277Z,8.24
2023-05-25T00:54:22.706Z,8.53
2023-05-25T00:56:53.817Z,8.54
2023-05-25T00:59:35.818Z,8.31
2023-05-25T01:02:07.020Z,8.41
2023-05-25T01:04:37.157Z,8.33
2023-05-25T01:07:10.110Z,8.40
2023-05-25T01:09:40.857Z,8.35
2023-05-25T01:12:11.904Z,8.37
2023-05-25T01:14:40.875Z,8.28
2023-05-25T01:17:10.790Z,8.19
2023-05-25T01:19:41.556Z,8.30
2023-05-25T01:22:20.347Z,8.31
2023-05-25T01:24:52.853Z,8.19
2023-05-25T01:27:28.519Z,8.18
2023-05-25T01:29:58.835Z,8.05
2023-05-25T01:32:29.322Z,8.23
2023-05-25T01:35:00.807Z,8.09
2023-05-25T01:37:32.008Z,8.01
2023-05-25T01:40:00.195Z,8.02
2023-05-25T01:42:28.159Z,7.91
2023-05-25T01:44:56.939Z,8.01
2023-05-25T01:47:30.326Z,7.96
2023-05-25T01:50:05.090Z,7.91
2023-05-25T01:52:39.405Z,7.83
2023-05-25T01:55:12.007Z,7.90
2023-05-25T01:57:44.277Z,7.68
2023-05-25T02:00:15.259Z,7.73
2023-05-25T02:02:45.508Z,7.69
2023-05-25T02:05:13.869Z,7.50
2023-05-25T02:07:43.994Z,7.33
2023-05-25T02:10:12.408Z,7.36
2023-05-25T02:12:40.782Z,7.50
2023-05-25T02:15:11.266Z,7.51
2023-05-25T02:17:39.568Z,7.40
2023-05-25T02:20:11.714Z,7.27
2023-05-25T02:22:39.890Z,7.26
2023-05-25T02:25:10.332Z,7.45
2023-05-25T02:27:39.075Z,7.12
2023-05-25T02:30:09.388Z,7.31
2023-05-25T02:32:37.689Z,7.32
2023-05-25T02:35:06.988Z,7.25
2023-05-25T02:37:35.327Z,7.31
2023-05-25T02:40:04.040Z,7.22
2023-05-25T02:42:34.031Z,7.20
2023-05-25T02:45:02.393Z,7.39
2023-05-25T02:47:31.264Z,7.33
2023-05-25T02:49:59.475Z,7.09
2023-05-25T02:52:28.423Z,7.28
2023-05-25T02:54:56.602Z,7.26
2023-05-25T02:57:25.294Z,7.30
2023-05-25T02:59:55.213Z,7.23
2023-05-25T03:02:26.043Z,7.05
2023-05-25T03:04:54.797Z,7.03
2023-05-25T03:07:23.238Z,7.17
2023-05-25T03:09:52.333Z,7.26
2023-05-25T03:12:20.672Z,7.34
2023-05-25T03:14:49.803Z,7.40
2023-05-25T03:17:20.306Z,7.28
2023-05-25T03:19:48.837Z,7.39
2023-05-25T03:22:17.260Z,7.48
2023-05-25T03:24:47.221Z,7.58
2023-05-25T03:27:15.657Z,7.60
2023-05-25T03:29:43.886Z,7.63
2023-05-25T03:32:12.439Z,7.59
2023-05-25T03:34:42.056Z,7.81
2023-05-25T03:37:10.238Z,8.00
2023-05-25T03:39:38.986Z,8.31
2023-05-25T03:42:07.788Z,8.67
2023-05-25T03:44:36.366Z,8.62
2023-05-25T03:47:05.249Z,8.51
2023-05-25T03:49:34.134Z,8.71
2023-05-25T03:52:03.859Z,9.18
2023-05-25T03:54:32.530Z,9.78
2023-05-25T03:57:00.816Z,10.46
2023-05-25T03:59:29.132Z,11.06
2023-05-25T04:01:58.229Z,11.82
2023-05-25T04:04:28.358Z,12.24
2023-05-25T04:06:57.145Z,12.30
2023-05-25T04:09:27.106Z,12.50
2023-05-25T04:11:56.029Z,13.29
2023-05-25T04:14:24.490Z,13.50
2023-05-25T04:16:54.002Z,13.52
2023-05-25T04:19:22.868Z,14.31
2023-05-25T04:21:51.243Z,15.15
2023-05-25T04:24:20.104Z,16.46
2023-05-25T04:26:52.178Z,15.96
2023-05-25T04:29:21.415Z,16.17
2023-05-25T04:31:49.813Z,17.97
2023-05-25T04:34:22.219Z,17.60
2023-05-25T04:36:50.895Z,17.77
2023-05-25T04:39:19.233Z,17.52
2023-05-25T04:41:50.480Z,17.67
2023-05-25T04:44:20.187Z,18.27
2023-05-25T04:46:50.292Z,20.40
2023-05-25T04:49:20.584Z,19.50
2023-05-25T04:51:49.927Z,21.64
2023-05-25T04:54:18.416Z,21.24
2023-05-25T04:56:47.498Z,20.39
2023-05-25T04:59:21.109Z,20.60
2023-05-25T05:01:50.955Z,20.73
2023-05-25T05:04:20.129Z,21.84
2023-05-25T05:06:49.003Z,20.10
2023-05-25T05:09:18.605Z,19.98
2023-05-25T05:11:47.349Z,21.95
2023-05-25T05:14:17.430Z,21.48
2023-05-25T05:16:49.543Z,23.79
2023-05-25T05:19:19.809Z,23.12
2023-05-25T05:21:49.000Z,24.57
2023-05-25T05:24:18.313Z,23.73
2023-05-25T05:26:57.350Z,25.20
2023-05-25T05:29:29.817Z,25.20
2023-05-25T05:31:58.560Z,25.14
2023-05-25T05:34:27.357Z,25.09
2023-05-25T05:36:58.818Z,25.47
2023-05-25T05:39:28.845Z,27.14
2023-05-25T05:41:58.560Z,27.75
2023-05-25T05:44:29.512Z,27.73
2023-05-25T05:47:01.563Z,27.01
2023-05-25T05:49:31.388Z,28.99
2023-05-25T05:52:01.102Z,26.82
2023-05-25T05:54:29.838Z,27.51
2023-05-25T05:56:58.681Z,26.72
2023-05-25T05:59:29.496Z,28.04
2023-05-25T06:01:57.936Z,28.22
2023-05-25T06:04:29.182Z,31.22
2023-05-25T06:07:00.078Z,27.80
2023-05-25T06:09:28.449Z,27.98
2023-05-25T06:11:56.876Z,29.50
2023-05-25T06:14:28.128Z,30.35
2023-05-25T06:16:58.930Z,29.38
2023-05-25T06:19:28.391Z,30.58
2023-05-25T06:21:57.145Z,28.70
2023-05-25T06:24:26.085Z,28.21
2023-05-25T06:26:55.326Z,29.81
2023-05-25T06:29:25.616Z,31.85
2023-05-25T06:31:55.246Z,31.43
2023-05-25T06:34:26.196Z,29.11
2023-05-25T06:36:55.520Z,29.11
2023-05-25T06:39:24.565Z,30.49
2023-05-25T06:41:54.449Z,28.36
2023-05-25T06:44:24.041Z,31.48
2023-05-25T06:46:53.065Z,31.56
2023-05-25T06:49:22.083Z,32.59
2023-05-25T06:51:53.216Z,31.37
2023-05-25T06:54:24.409Z,33.05
2023-05-25T06:56:54.118Z,32.09
2023-05-25T06:59:23.452Z,33.31
2023-05-25T07:01:53.135Z,31.51
2023-05-25T07:04:23.276Z,32.33
2023-05-25T07:06:53.866Z,34.40
2023-05-25T07:09:23.364Z,34.82
2023-05-25T07:11:52.333Z,33.64
2023-05-25T07:14:21.089Z,33.61
2023-05-25T07:16:53.048Z,35.59
2023-05-25T07:19:22.082Z,35.40
2023-05-25T07:21:51.244Z,35.51
2023-05-25T07:24:21.977Z,35.79
2023-05-25T07:26:50.393Z,35.55
2023-05-25T07:29:19.362Z,34.41
2023-05-25T07:31:48.948Z,33.53
2023-05-25T07:34:18.568Z,34.13
2023-05-25T07:36:50.521Z,35.99
2023-05-25T07:39:21.996Z,35.63
2023-05-25T07:41:51.184Z,32.31
2023-05-25T07:44:21.096Z,35.17
2023-05-25T07:46:50.955Z,35.07
2023-05-25T07:49:32.354Z,33.06
2023-05-25T07:52:11.298Z,33.49
2023-05-25T07:55:07.627Z,34.78
2023-05-25T07:57:43.215Z,36.48
2023-05-25T08:00:21.619Z,34.92
2023-05-25T08:03:12.471Z,34.96
2023-05-25T08:05:42.040Z,35.45
2023-05-25T08:08:11.070Z,35.92
2023-05-25T08:10:41.360Z,38.03
2023-05-25T08:13:23.878Z,36.88
2023-05-25T08:16:03.781Z,37.40
2023-05-25T08:18:32.890Z,38.27
2023-05-25T08:21:01.230Z,37.42
2023-05-25T08:23:29.683Z,38.27
2023-05-25T08:26:01.349Z,38.16
2023-05-25T08:28:29.832Z,35.51
2023-05-25T08:30:58.870Z,33.93
2023-05-25T08:33:28.000Z,35.05
2023-05-25T08:35:57.172Z,34.09
2023-05-25T08:38:26.680Z,36.64
2023-05-25T08:41:06.828Z,35.04
2023-05-25T08:43:36.452Z,37.82
2023-05-25T08:46:07.689Z,36.92
2023-05-25T08:48:42.382Z,38.81
2023-05-25T08:51:15.006Z,38.74
2023-05-25T08:53:47.876Z,33.73
2023-05-25T08:56:20.698Z,35.07
2023-05-25T08:58:55.794Z,33.74
2023-05-25T09:01:26.660Z,36.47
2023-05-25T09:03:57.811Z,34.96
2023-05-25T09:06:28.609Z,36.85
2023-05-25T09:08:57.419Z,35.79
2023-05-25T09:11:38.867Z,35.73
2023-05-25T09:14:09.217Z,33.25
2023-05-25T09:16:40.091Z,31.08
2023-05-25T09:19:09.245Z,32.62
2023-05-25T09:21:39.044Z,34.68
2023-05-25T09:24:08.671Z,33.81
2023-05-25T09:26:39.831Z,34.77
2023-05-25T09:29:08.794Z,34.61
2023-05-25T09:31:38.919Z,33.04
2023-05-25T09:34:14.586Z,32.05
2023-05-25T09:36:43.635Z,33.73
2023-05-25T09:39:13.280Z,34.18
2023-05-25T09:41:45.147Z,33.53
2023-05-25T09:44:15.685Z,32.45
2023-05-25T09:46:45.584Z,33.10
2023-05-25T09:49:14.400Z,32.65
2023-05-25T09:51:43.578Z,31.45
2023-05-25T09:54:13.598Z,31.26
2023-05-25T09:56:45.441Z,30.50
2023-05-25T09:59:14.766Z,32.95
2023-05-25T10:01:44.757Z,32.97
2023-05-25T10:04:18.125Z,31.64
2023-05-25T10:06:51.353Z,30.09
2023-05-25T10:09:21.935Z,32.21
2023-05-25T10:11:55.211Z,31.85
2023-05-25T10:14:29.301Z,32.46
2023-05-25T10:17:01.791Z,34.87
2023-05-25T10:19:35.309Z,32.90
2023-05-25T10:22:10.907Z,31.09
2023-05-25T10:24:46.196Z,30.64
2023-05-25T10:27:27.912Z,29.13
2023-05-25T10:29:59.502Z,31.89
2023-05-25T10:32:31.797Z,31.57
2023-05-25T10:35:03.880Z,32.81
2023-05-25T10:37:34.710Z,31.76
2023-05-25T10:40:04.499Z,31.85
2023-05-25T10:42:37.310Z,31.07
2023-05-25T10:45:08.156Z,31.48
2023-05-25T10:47:38.932Z,30.57
2023-05-25T10:50:20.130Z,28.51
2023-05-25T10:53:00.065Z,31.24
2023-05-25T10:55:32.727Z,30.64
2023-05-25T10:58:15.257Z,30.65
2023-05-25T11:00:45.625Z,31.65
2023-05-25T11:03:14.645Z,30.14
2023-05-25T11:05:44.156Z,30.34
2023-05-25T11:08:18.030Z,30.54
2023-05-25T11:10:54.993Z,29.13
2023-05-25T11:13:41.558Z,29.13
2023-05-25T11:16:23.002Z,29.23
2023-05-25T11:18:54.923Z,28.79
2023-05-25T11:21:42.796Z,28.90
2023-05-25T11:24:20.347Z,28.38
2023-05-25T11:26:58.485Z,28.35
2023-05-25T11:29:33.790Z,28.80
2023-05-25T11:32:03.124Z,28.79
2023-05-25T11:34:34.226Z,28.07
2023-05-25T11:37:04.211Z,28.35
2023-05-25T11:39:33.123Z,28.20
2023-05-25T11:42:05.997Z,26.58
2023-05-25T11:44:39.963Z,28.14
2023-05-25T11:47:14.293Z,27.53
2023-05-25T11:49:46.252Z,27.57
2023-05-25T11:52:16.773Z,28.05
2023-05-25T11:54:46.099Z,28.13
2023-05-25T11:57:19.171Z,27.33
2023-05-25T11:59:54.889Z,27.32
2023-05-25T12:02:25.446Z,28.13
2023-05-25T12:04:58.707Z,28.21
2023-05-25T12:07:28.964Z,28.47
2023-05-25T12:10:10.947Z,26.33
2023-05-25T12:12:43.629Z,27.55
2023-05-25T12:15:17.205Z,27.69
2023-05-25T12:17:49.585Z,27.39
2023-05-25T12:20:19.965Z,26.43
2023-05-25T12:22:49.358Z,26.61
2023-05-25T12:25:22.222Z,26.26
2023-05-25T12:27:51.469Z,26.70
2023-05-25T12:30:30.729Z,26.10
2023-05-25T12:33:04.531Z,26.14
2023-05-25T12:35:48.311Z,25.60
2023-05-25T12:38:18.942Z,26.15
2023-05-25T12:40:48.181Z,26.81
2023-05-25T12:43:18.107Z,27.02
2023-05-25T12:45:48.802Z,27.18
2023-05-25T12:48:19.901Z,27.35
2023-05-25T12:51:02.227Z,25.49
2023-05-25T12:53:31.919Z,25.55
2023-05-25T12:56:03.981Z,25.45
2023-05-25T12:58:33.477Z,26.02
2023-05-25T13:01:04.260Z,25.97
2023-05-25T13:03:33.934Z,25.15
2023-05-25T13:06:03.859Z,25.43
2023-05-25T13:08:32.867Z,24.87
2023-05-25T13:11:04.532Z,25.12
2023-05-25T13:13:34.320Z,25.29
2023-05-25T13:16:05.954Z,25.60
2023-05-25T13:18:35.416Z,25.74
2023-05-25T13:21:06.470Z,24.95
2023-05-25T13:23:36.412Z,25.79
2023-05-25T13:26:05.201Z,25.07
2023-05-25T13:28:34.464Z,24.73
2023-05-25T13:31:04.519Z,24.49
2023-05-25T13:33:32.929Z,24.69
2023-05-25T13:36:08.670Z,24.27
2023-05-25T13:38:38.366Z,24.13
2023-05-25T13:41:07.269Z,24.37
2023-05-25T13:43:36.795Z,24.57
2023-05-25T13:48:36.303Z,23.58
2023-05-25T13:51:05.688Z,24.41
2023-05-25T13:53:34.297Z,23.92
2023-05-25T13:56:03.096Z,24.35
2023-05-25T13:58:33.767Z,24.29
2023-05-25T14:01:03.031Z,24.18
2023-05-25T14:03:34.501Z,23.70
2023-05-25T14:06:03.733Z,23.84
2023-05-25T14:08:33.166Z,23.80
2023-05-25T14:11:04.397Z,24.04
2023-05-25T14:13:33.724Z,23.70
2023-05-25T14:16:03.593Z,23.33
2023-05-25T14:18:35.569Z,23.25
2023-05-25T14:21:04.858Z,23.37
2023-05-25T14:23:34.265Z,23.44
2023-05-25T14:26:03.774Z,23.21
2023-05-25T14:28:32.457Z,23.72
2023-05-25T14:31:02.039Z,23.20
2023-05-25T14:33:30.964Z,23.21
2023-05-25T14:36:01.694Z,23.18
2023-05-25T14:38:30.602Z,23.11
2023-05-25T14:40:59.243Z,23.02
2023-05-25T14:43:28.337Z,23.18
2023-05-25T14:45:57.109Z,23.05
2023-05-25T14:48:26.301Z,23.10
2023-05-25T14:50:55.447Z,23.18
2023-05-25T14:53:25.513Z,23.12
2023-05-25T14:55:54.449Z,22.71
2023-05-25T14:58:23.746Z,22.52
2023-05-25T15:00:52.370Z,22.80
2023-05-25T15:03:21.324Z,22.78
2023-05-25T15:05:50.516Z,22.89
2023-05-25T15:08:19.041Z,22.77
2023-05-25T15:10:49.712Z,23.29
2023-05-25T15:13:18.863Z,23.20
2023-05-25T15:15:47.687Z,23.39
2023-05-25T15:18:16.684Z,22.85
2023-05-25T15:20:45.251Z,23.27
2023-05-25T15:23:13.956Z,23.32
2023-05-25T15:25:43.012Z,23.03
2023-05-25T15:28:13.573Z,23.06
2023-05-25T15:30:43.020Z,23.29
2023-05-25T15:33:11.549Z,23.48
2023-05-25T15:35:39.846Z,23.02
2023-05-25T15:38:08.871Z,23.05
2023-05-25T15:40:38.072Z,23.01
2023-05-25T15:43:07.000Z,22.24
2023-05-25T15:45:37.649Z,22.55
2023-05-25T15:48:09.534Z,22.61
2023-05-25T15:50:40.263Z,22.58
2023-05-25T15:53:08.980Z,22.57
2023-05-25T15:55:37.698Z,22.54
2023-05-25T15:58:06.781Z,23.13
2023-05-25T16:00:37.050Z,22.88
2023-05-25T16:03:06.159Z,22.43
2023-05-25T16:05:35.142Z,22.03
2023-05-25T16:08:06.316Z,22.23
2023-05-25T16:10:34.890Z,22.40
2023-05-25T16:13:04.158Z,22.39
2023-05-25T16:15:33.426Z,22.78
2023-05-25T16:18:03.539Z,22.48
2023-05-25T16:20:32.240Z,22.49
2023-05-25T16:23:00.844Z,22.38
2023-05-25T16:25:30.160Z,22.01
2023-05-25T16:27:58.766Z,22.58
2023-05-25T16:30:27.574Z,22.27
2023-05-25T16:32:57.013Z,22.26
2023-05-25T16:35:26.997Z,22.35
2023-05-25T16:37:57.110Z,22.46
2023-05-25T16:40:26.201Z,22.69
2023-05-25T16:42:54.766Z,22.11
2023-05-25T16:45:24.288Z,22.17
2023-05-25T16:47:53.202Z,22.16
2023-05-25T16:50:22.287Z,22.16
2023-05-25T16:52:58.450Z,21.63
2023-05-25T16:55:27.645Z,22.01
2023-05-25T16:57:56.124Z,21.62
2023-05-25T17:00:24.988Z,21.70
2023-05-25T17:02:53.870Z,21.75
2023-05-25T17:05:22.734Z,21.71
2023-05-25T17:07:51.875Z,21.61
2023-05-25T17:10:22.611Z,21.38
2023-05-25T17:12:52.221Z,21.49
2023-05-25T17:15:21.074Z,21.47
2023-05-25T17:17:51.587Z,21.24
2023-05-25T17:20:20.415Z,21.27
2023-05-25T17:22:50.558Z,21.12
2023-05-25T17:25:19.432Z,21.29
2023-05-25T17:27:50.092Z,21.11
2023-05-25T17:30:19.917Z,21.18
2023-05-25T17:32:49.146Z,21.13
2023-05-25T17:35:17.904Z,21.10
2023-05-25T17:37:47.313Z,21.06
2023-05-25T17:40:19.006Z,20.81
2023-05-25T17:42:50.468Z,20.76
2023-05-25T17:45:22.355Z,20.80
2023-05-25T17:47:52.178Z,20.67
2023-05-25T17:50:21.736Z,20.60
2023-05-25T17:52:50.535Z,20.39
2023-05-25T17:55:21.432Z,20.43
2023-05-25T17:57:51.333Z,20.49
2023-05-25T18:00:23.552Z,20.39
2023-05-25T18:02:52.271Z,20.33
2023-05-25T18:05:20.989Z,20.23
2023-05-25T18:07:50.297Z,19.95
2023-05-25T18:10:18.859Z,20.07
2023-05-25T18:12:50.306Z,19.88
2023-05-25T18:15:20.378Z,19.89
2023-05-25T18:17:48.920Z,19.71
2023-05-25T18:20:17.717Z,19.75
2023-05-25T18:22:46.350Z,19.73
2023-05-25T18:25:14.687Z,19.60
2023-05-25T18:27:43.793Z,19.41
2023-05-25T18:30:13.085Z,19.56
2023-05-25T18:32:43.293Z,19.41
2023-05-25T18:35:12.911Z,19.16
2023-05-25T18:37:41.429Z,19.23
2023-05-25T18:40:13.460Z,18.86
2023-05-25T18:42:42.133Z,18.96
2023-05-25T18:45:11.588Z,19.07
2023-05-25T18:47:40.693Z,18.85
2023-05-25T18:50:12.442Z,18.74
2023-05-25T18:52:42.625Z,18.60
2023-05-25T18:55:11.509Z,18.64
2023-05-25T18:57:40.245Z,18.54
2023-05-25T19:00:11.394Z,18.31
2023-05-25T19:02:43.176Z,18.38
2023-05-25T19:05:15.386Z,18.49
2023-05-25T19:07:58.523Z,18.38
2023-05-25T19:10:29.069Z,18.18
2023-05-25T19:12:58.055Z,18.19
2023-05-25T19:15:26.545Z,17.97
2023-05-25T19:17:55.357Z,17.80
2023-05-25T19:20:28.345Z,17.90
2023-05-25T19:22:57.806Z,17.92
2023-05-25T19:25:26.416Z,17.72
2023-05-25T19:27:55.208Z,17.71
2023-05-25T19:30:24.171Z,17.71
2023-05-25T19:32:54.073Z,17.52
2023-05-25T19:35:23.869Z,17.71
2023-05-25T19:37:53.853Z,17.46
2023-05-25T19:40:22.536Z,17.47
2023-05-25T19:42:51.062Z,17.38
2023-05-25T19:45:19.990Z,17.26
2023-05-25T19:47:48.726Z,17.29
2023-05-25T19:50:18.361Z,17.49
2023-05-25T19:52:46.932Z,17.23
2023-05-25T19:55:16.570Z,17.39
2023-05-25T19:57:45.942Z,17.15
2023-05-25T20:00:25.309Z,17.13
2023-05-25T20:02:55.858Z,16.93
2023-05-25T20:05:24.843Z,17.02
2023-05-25T20:07:53.265Z,16.94
2023-05-25T20:10:23.819Z,16.93
2023-05-25T20:12:52.334Z,16.90
2023-05-25T20:15:21.233Z,17.12
2023-05-25T20:17:50.156Z,17.00
2023-05-25T20:20:18.852Z,16.95
2023-05-25T20:22:47.663Z,16.83
2023-05-25T20:25:16.424Z,16.81
2023-05-25T20:27:46.605Z,16.77
2023-05-25T20:30:17.642Z,16.70
2023-05-25T20:32:46.219Z,16.69
2023-05-25T20:35:15.113Z,16.59
2023-05-25T20:37:44.450Z,16.60
2023-05-25T20:40:12.909Z,16.72
2023-05-25T20:42:41.163Z,16.65
2023-05-25T20:45:12.314Z,16.66
2023-05-25T20:47:41.427Z,16.67
2023-05-25T20:50:10.330Z,16.53
2023-05-25T20:52:39.426Z,16.49
2023-05-25T20:55:08.853Z,16.51
2023-05-25T20:57:37.935Z,16.39
2023-05-25T21:00:07.115Z,16.45
2023-05-25T21:02:36.987Z,16.31
2023-05-25T21:05:06.520Z,16.39
2023-05-25T21:07:35.060Z,16.19
2023-05-25T21:10:04.354Z,16.18
2023-05-25T21:12:33.381Z,16.09
2023-05-25T21:15:01.899Z,16.19
2023-05-25T21:17:30.942Z,16.06
2023-05-25T21:20:01.671Z,16.07
2023-05-25T21:22:30.195Z,16.03
2023-05-25T21:24:59.644Z,15.97
2023-05-25T21:27:29.020Z,15.90
2023-05-25T21:29:57.470Z,15.99
2023-05-25T21:32:25.917Z,15.97
2023-05-25T21:34:55.773Z,15.96
2023-05-25T21:37:26.173Z,15.85
2023-05-25T21:39:55.107Z,15.82
2023-05-25T21:42:24.201Z,15.87
2023-05-25T21:44:52.981Z,15.88
2023-05-25T21:47:21.707Z,15.85
2023-05-25T21:49:51.362Z,15.81
2023-05-25T21:52:20.282Z,15.86
2023-05-25T21:54:49.992Z,15.77
2023-05-25T21:57:19.271Z,15.57
2023-05-25T21:59:47.608Z,15.67
2023-05-25T22:02:15.997Z,15.70
2023-05-25T22:04:45.093Z,15.62
2023-05-25T22:07:13.514Z,15.75
2023-05-25T22:09:41.922Z,15.63
2023-05-25T22:12:13.941Z,15.60
2023-05-25T22:14:42.363Z,15.72
2023-05-25T22:17:10.682Z,15.63
2023-05-25T22:19:39.644Z,15.58
2023-05-25T22:22:08.493Z,15.68
2023-05-25T22:24:37.044Z,15.69
2023-05-25T22:27:06.659Z,15.49
2023-05-25T22:29:37.021Z,15.41
2023-05-25T22:32:06.108Z,15.50
2023-05-25T22:34:35.994Z,15.41
2023-05-25T22:37:06.191Z,15.48
2023-05-25T22:39:34.768Z,15.51
2023-05-25T22:42:04.004Z,15.47
2023-05-25T22:44:32.550Z,15.23
2023-05-25T22:47:02.642Z,15.24
2023-05-25T22:49:31.588Z,15.23
2023-05-25T22:52:01.967Z,15.33
2023-05-25T22:54:30.762Z,15.23
2023-05-25T22:56:59.548Z,15.18
2023-05-25T22:59:27.921Z,15.32
2023-05-25T23:01:56.503Z,15.10
2023-05-25T23:04:27.722Z,15.16
2023-05-25T23:06:56.733Z,15.16
2023-05-25T23:09:25.173Z,15.01
2023-05-25T23:11:54.178Z,15.07
2023-05-25T23:14:22.464Z,15.04
2023-05-25T23:16:51.339Z,15.03
2023-05-25T23:19:19.967Z,15.01
2023-05-25T23:21:50.033Z,14.90
2023-05-25T23:24:19.004Z,14.93
2023-05-25T23:26:48.576Z,14.84
2023-05-25T23:29:17.325Z,14.81
2023-05-25T23:31:46.231Z,14.92
2023-05-25T23:34:14.744Z,14.92
2023-05-25T23:36:43.861Z,14.57
2023-05-25T23:39:14.662Z,14.73
2023-05-25T23:41:42.876Z,14.73
2023-05-25T23:44:12.435Z,14.64
2023-05-25T23:46:40.891Z,14.60
2023-05-25T23:49:11.370Z,14.66
2023-05-25T23:51:39.603Z,14.74
2023-05-25T23:54:08.191Z,14.74
2023-05-25T23:56:39.649Z,14.73
2023-05-25T23:59:09.434Z,14.68
